ASA7005 PANC-PAJN
Flight info
| Callsign | ASA7005 |
|---|---|
| Flight time | 1h 11m |
| Altitude | 35000 |
| Route | NOEND CUSHI |
| Aircraft | B738/M-SDE2E3FGHIRWXY/LB1 |
Departure
| Time | 2026-04-12 02:06 |
|---|---|
| Airport | Ted Stevens Anchorage International Airport (PANC) |
Arrival
| Time | 2026-04-12 03:17 |
|---|---|
| Airport | Juneau International Airport (PAJN) |
| Time | Latitude | Longitude | Altitude | Speed | Heading |
|---|---|---|---|---|---|
| 2026-04-12 01:41 | 61.17219 | -149.96183 | 98 ft | 0 kts | 134° |
| 2026-04-12 01:58 | 61.17230 | -149.96203 | 97 ft | 4 kts | 162° |
| 2026-04-12 01:59 | 61.17246 | -149.96196 | 97 ft | 4 kts | 244° |
| 2026-04-12 01:59 | 61.17252 | -149.96158 | 95 ft | 3 kts | 270° |
| 2026-04-12 02:00 | 61.17251 | -149.96158 | 97 ft | 0 kts | 270° |
| 2026-04-12 02:01 | 61.17252 | -149.96191 | 98 ft | 9 kts | 270° |
| 2026-04-12 02:01 | 61.17188 | -149.96265 | 96 ft | 19 kts | 181° |
| 2026-04-12 02:01 | 61.17127 | -149.96524 | 95 ft | 30 kts | 270° |
| 2026-04-12 02:01 | 61.17127 | -149.96956 | 97 ft | 29 kts | 270° |
| 2026-04-12 02:02 | 61.17123 | -149.97337 | 103 ft | 24 kts | 266° |
| 2026-04-12 02:02 | 61.17118 | -149.97553 | 106 ft | 22 kts | 269° |
| 2026-04-12 02:02 | 61.17117 | -149.97894 | 112 ft | 26 kts | 270° |
| 2026-04-12 02:02 | 61.17117 | -149.98377 | 114 ft | 32 kts | 270° |
| 2026-04-12 02:03 | 61.17117 | -149.98745 | 114 ft | 23 kts | 270° |
| 2026-04-12 02:03 | 61.17125 | -149.99149 | 117 ft | 30 kts | 272° |
| 2026-04-12 02:03 | 61.17124 | -149.99428 | 121 ft | 27 kts | 270° |
| 2026-04-12 02:03 | 61.17125 | -149.99927 | 131 ft | 27 kts | 269° |
| 2026-04-12 02:04 | 61.17124 | -150.00185 | 135 ft | 25 kts | 271° |
| 2026-04-12 02:04 | 61.17124 | -150.00535 | 136 ft | 23 kts | 270° |
| 2026-04-12 02:04 | 61.17082 | -150.00808 | 135 ft | 21 kts | 190° |
| 2026-04-12 02:04 | 61.16978 | -150.00679 | 136 ft | 17 kts | 101° |
| 2026-04-12 02:05 | 61.16977 | -150.00570 | 137 ft | 7 kts | 90° |
| 2026-04-12 02:05 | 61.16978 | -150.00081 | 132 ft | 71 kts | 90° |
| 2026-04-12 02:05 | 61.16979 | -149.98559 | 114 ft | 138 kts | 90° |
| 2026-04-12 02:05 | 61.16990 | -149.96229 | 336 ft | 174 kts | 89° |
| 2026-04-12 02:06 | 61.17036 | -149.93763 | 1275 ft | 172 kts | 88° |
| 2026-04-12 02:06 | 61.17089 | -149.91179 | 1957 ft | 189 kts | 89° |
| 2026-04-12 02:06 | 61.17147 | -149.88344 | 2624 ft | 200 kts | 88° |
| 2026-04-12 02:06 | 61.17209 | -149.85484 | 3327 ft | 203 kts | 96° |
| 2026-04-12 02:07 | 61.16862 | -149.82630 | 4017 ft | 207 kts | 113° |
| 2026-04-12 02:07 | 61.16303 | -149.79714 | 4373 ft | 235 kts | 113° |
| 2026-04-12 02:07 | 61.15776 | -149.76290 | 4800 ft | 259 kts | 98° |
| 2026-04-12 02:07 | 61.15739 | -149.72524 | 5737 ft | 262 kts | 92° |
| 2026-04-12 02:08 | 61.15752 | -149.68719 | 6616 ft | 267 kts | 92° |
| 2026-04-12 02:08 | 61.15750 | -149.64829 | 7419 ft | 273 kts | 93° |
| 2026-04-12 02:08 | 61.15725 | -149.60867 | 8236 ft | 278 kts | 93° |
| 2026-04-12 02:08 | 61.15683 | -149.56818 | 9094 ft | 283 kts | 94° |
| 2026-04-12 02:09 | 61.15625 | -149.52687 | 9883 ft | 290 kts | 94° |
| 2026-04-12 02:09 | 61.15562 | -149.48454 | 10442 ft | 303 kts | 94° |
| 2026-04-12 02:09 | 61.15485 | -149.43912 | 10638 ft | 328 kts | 94° |
| 2026-04-12 02:09 | 61.15395 | -149.39026 | 10856 ft | 351 kts | 95° |
| 2026-04-12 02:10 | 61.15298 | -149.33890 | 11325 ft | 362 kts | 95° |
| 2026-04-12 02:10 | 61.15198 | -149.28656 | 12149 ft | 365 kts | 95° |
| 2026-04-12 02:10 | 61.15094 | -149.23389 | 12894 ft | 369 kts | 95° |
| 2026-04-12 02:10 | 61.14984 | -149.18030 | 13578 ft | 375 kts | 95° |
| 2026-04-12 02:11 | 61.14869 | -149.12605 | 14220 ft | 379 kts | 96° |
| 2026-04-12 02:11 | 61.14753 | -149.07211 | 14942 ft | 381 kts | 96° |
| 2026-04-12 02:11 | 61.14632 | -149.01706 | 15606 ft | 385 kts | 96° |
| 2026-04-12 02:11 | 61.14507 | -148.96147 | 16238 ft | 389 kts | 97° |
| 2026-04-12 02:12 | 61.14379 | -148.90534 | 16882 ft | 393 kts | 97° |
| 2026-04-12 02:12 | 61.14233 | -148.84853 | 17532 ft | 396 kts | 97° |
| 2026-04-12 02:12 | 61.14093 | -148.79127 | 18136 ft | 400 kts | 97° |
| 2026-04-12 02:12 | 61.13958 | -148.73355 | 18691 ft | 403 kts | 97° |
| 2026-04-12 02:13 | 61.13824 | -148.67531 | 19269 ft | 406 kts | 97° |
| 2026-04-12 02:13 | 61.13683 | -148.61677 | 19769 ft | 409 kts | 97° |
| 2026-04-12 02:13 | 61.13534 | -148.55780 | 20322 ft | 412 kts | 97° |
| 2026-04-12 02:13 | 61.13378 | -148.49839 | 20857 ft | 415 kts | 98° |
| 2026-04-12 02:14 | 61.12971 | -148.43947 | 21367 ft | 413 kts | 109° |
| 2026-04-12 02:14 | 61.12154 | -148.38257 | 21895 ft | 413 kts | 112° |
| 2026-04-12 02:14 | 61.11277 | -148.32582 | 22391 ft | 416 kts | 112° |
| 2026-04-12 02:14 | 61.10378 | -148.26851 | 22898 ft | 420 kts | 112° |
| 2026-04-12 02:15 | 61.09475 | -148.21088 | 23436 ft | 423 kts | 112° |
| 2026-04-12 02:15 | 61.08571 | -148.15285 | 23867 ft | 426 kts | 112° |
| 2026-04-12 02:15 | 61.07665 | -148.09428 | 24290 ft | 428 kts | 112° |
| 2026-04-12 02:15 | 61.06759 | -148.03550 | 24699 ft | 431 kts | 112° |
| 2026-04-12 02:16 | 61.05848 | -147.97634 | 25098 ft | 434 kts | 112° |
| 2026-04-12 02:16 | 61.04930 | -147.91681 | 25411 ft | 437 kts | 112° |
| 2026-04-12 02:16 | 61.04002 | -147.85677 | 25762 ft | 441 kts | 112° |
| 2026-04-12 02:16 | 61.03070 | -147.79659 | 26201 ft | 440 kts | 112° |
| 2026-04-12 02:17 | 61.02132 | -147.73627 | 26547 ft | 444 kts | 112° |
| 2026-04-12 02:17 | 61.01180 | -147.67526 | 26829 ft | 448 kts | 112° |
| 2026-04-12 02:17 | 61.00219 | -147.61396 | 27162 ft | 451 kts | 112° |
| 2026-04-12 02:17 | 60.99252 | -147.55242 | 27526 ft | 452 kts | 112° |
| 2026-04-12 02:18 | 60.98277 | -147.49061 | 27851 ft | 455 kts | 112° |
| 2026-04-12 02:18 | 60.97294 | -147.42851 | 28167 ft | 457 kts | 112° |
| 2026-04-12 02:18 | 60.96302 | -147.36608 | 28494 ft | 460 kts | 112° |
| 2026-04-12 02:18 | 60.95302 | -147.30342 | 28751 ft | 462 kts | 112° |
| 2026-04-12 02:19 | 60.94294 | -147.24039 | 28951 ft | 466 kts | 112° |
| 2026-04-12 02:19 | 60.93274 | -147.17689 | 29227 ft | 469 kts | 112° |
| 2026-04-12 02:19 | 60.92249 | -147.11328 | 29688 ft | 467 kts | 112° |
| 2026-04-12 02:19 | 60.91228 | -147.05003 | 30172 ft | 465 kts | 112° |
| 2026-04-12 02:20 | 60.90209 | -146.98715 | 30542 ft | 464 kts | 112° |
| 2026-04-12 02:20 | 60.89184 | -146.92422 | 30870 ft | 464 kts | 112° |
| 2026-04-12 02:20 | 60.88169 | -146.86217 | 31133 ft | 465 kts | 112° |
| 2026-04-12 02:20 | 60.87120 | -146.79827 | 31421 ft | 466 kts | 113° |
| 2026-04-12 02:21 | 60.86085 | -146.73541 | 31786 ft | 465 kts | 113° |
| 2026-04-12 02:21 | 60.85063 | -146.67350 | 32176 ft | 463 kts | 113° |
| 2026-04-12 02:21 | 60.84029 | -146.61107 | 32442 ft | 463 kts | 113° |
| 2026-04-12 02:21 | 60.82985 | -146.54834 | 32657 ft | 466 kts | 113° |
| 2026-04-12 02:22 | 60.81935 | -146.48551 | 32980 ft | 465 kts | 113° |
| 2026-04-12 02:22 | 60.80889 | -146.42299 | 33394 ft | 463 kts | 114° |
| 2026-04-12 02:22 | 60.79842 | -146.36066 | 33754 ft | 462 kts | 114° |
| 2026-04-12 02:22 | 60.78800 | -146.29881 | 34047 ft | 461 kts | 114° |
| 2026-04-12 02:23 | 60.77767 | -146.23760 | 34561 ft | 452 kts | 114° |
| 2026-04-12 02:23 | 60.76733 | -146.17668 | 34712 ft | 455 kts | 113° |
| 2026-04-12 02:23 | 60.74624 | -146.05336 | 34855 ft | 463 kts | 114° |
| 2026-04-12 02:24 | 60.72482 | -145.92877 | 34970 ft | 467 kts | 113° |
| 2026-04-12 02:24 | 60.70307 | -145.80296 | 34980 ft | 473 kts | 113° |
| 2026-04-12 02:25 | 60.68086 | -145.67545 | 34983 ft | 479 kts | 113° |
| 2026-04-12 02:25 | 60.65840 | -145.54726 | 34961 ft | 481 kts | 113° |
| 2026-04-12 02:26 | 60.63579 | -145.41902 | 34976 ft | 481 kts | 114° |
| 2026-04-12 02:26 | 60.61298 | -145.29067 | 34957 ft | 482 kts | 114° |
| 2026-04-12 02:27 | 60.59005 | -145.16246 | 34974 ft | 482 kts | 114° |
| 2026-04-12 02:27 | 60.56696 | -145.03428 | 34966 ft | 483 kts | 114° |
| 2026-04-12 02:28 | 60.54377 | -144.90638 | 34974 ft | 481 kts | 114° |
| 2026-04-12 02:28 | 60.52051 | -144.77899 | 34957 ft | 481 kts | 114° |
| 2026-04-12 02:29 | 60.49715 | -144.65189 | 34947 ft | 480 kts | 114° |
| 2026-04-12 02:29 | 60.47385 | -144.52592 | 34956 ft | 480 kts | 114° |
| 2026-04-12 02:30 | 60.45025 | -144.39923 | 34952 ft | 481 kts | 114° |
| 2026-04-12 02:30 | 60.42654 | -144.27269 | 34953 ft | 481 kts | 114° |
| 2026-04-12 02:31 | 60.40267 | -144.14617 | 34957 ft | 481 kts | 114° |
| 2026-04-12 02:31 | 60.37867 | -144.01978 | 34925 ft | 481 kts | 114° |
| 2026-04-12 02:32 | 60.35459 | -143.89377 | 34943 ft | 481 kts | 114° |
| 2026-04-12 02:32 | 60.33036 | -143.76778 | 34952 ft | 481 kts | 114° |
| 2026-04-12 02:33 | 60.30601 | -143.64193 | 34941 ft | 482 kts | 115° |
| 2026-04-12 02:33 | 60.28152 | -143.51624 | 34953 ft | 481 kts | 115° |
| 2026-04-12 02:34 | 60.25693 | -143.39078 | 34955 ft | 481 kts | 115° |
| 2026-04-12 02:34 | 60.23239 | -143.26664 | 34946 ft | 474 kts | 115° |
| 2026-04-12 02:35 | 60.20783 | -143.14279 | 34966 ft | 480 kts | 115° |
| 2026-04-12 02:35 | 60.18287 | -143.01777 | 34957 ft | 483 kts | 115° |
| 2026-04-12 02:36 | 60.15768 | -142.89240 | 34952 ft | 484 kts | 115° |
| 2026-04-12 02:36 | 60.13236 | -142.76715 | 34946 ft | 484 kts | 115° |
| 2026-04-12 02:37 | 60.10708 | -142.64295 | 34943 ft | 484 kts | 115° |
| 2026-04-12 02:37 | 60.08151 | -142.51803 | 34952 ft | 484 kts | 115° |
| 2026-04-12 02:38 | 60.05583 | -142.39336 | 34943 ft | 484 kts | 115° |
| 2026-04-12 02:38 | 60.03005 | -142.26898 | 34954 ft | 483 kts | 115° |
| 2026-04-12 02:39 | 60.00420 | -142.14502 | 34954 ft | 483 kts | 115° |
| 2026-04-12 02:39 | 59.97822 | -142.02120 | 34961 ft | 483 kts | 115° |
| 2026-04-12 02:40 | 59.95211 | -141.89747 | 34953 ft | 483 kts | 115° |
| 2026-04-12 02:40 | 59.92589 | -141.77398 | 34953 ft | 484 kts | 115° |
| 2026-04-12 02:41 | 59.89955 | -141.65065 | 34957 ft | 483 kts | 116° |
| 2026-04-12 02:41 | 59.87309 | -141.52753 | 34951 ft | 484 kts | 115° |
| 2026-04-12 02:42 | 59.84647 | -141.40439 | 34955 ft | 485 kts | 115° |
| 2026-04-12 02:43 | 59.80625 | -141.21967 | 34954 ft | 486 kts | 116° |
| 2026-04-12 02:43 | 59.77946 | -141.09754 | 34974 ft | 486 kts | 115° |
| 2026-04-12 02:44 | 59.75230 | -140.97447 | 34947 ft | 487 kts | 115° |
| 2026-04-12 02:44 | 59.72497 | -140.85133 | 34965 ft | 488 kts | 115° |
| 2026-04-12 02:45 | 59.69749 | -140.72821 | 34961 ft | 489 kts | 115° |
| 2026-04-12 02:45 | 59.66982 | -140.60498 | 34962 ft | 490 kts | 116° |
| 2026-04-12 02:46 | 59.64203 | -140.48191 | 34962 ft | 490 kts | 116° |
| 2026-04-12 02:46 | 59.61411 | -140.35902 | 34950 ft | 490 kts | 115° |
| 2026-04-12 02:47 | 59.58602 | -140.23608 | 34963 ft | 491 kts | 116° |
| 2026-04-12 02:47 | 59.56254 | -140.13388 | 34962 ft | 491 kts | 116° |
| 2026-04-12 02:48 | 59.53425 | -140.01135 | 34963 ft | 491 kts | 116° |
| 2026-04-12 02:48 | 59.50583 | -139.88895 | 34964 ft | 491 kts | 116° |
| 2026-04-12 02:49 | 59.47729 | -139.76675 | 34960 ft | 492 kts | 116° |
| 2026-04-12 02:49 | 59.44858 | -139.64450 | 34956 ft | 492 kts | 116° |
| 2026-04-12 02:50 | 59.41974 | -139.52241 | 34953 ft | 493 kts | 116° |
| 2026-04-12 02:50 | 59.39076 | -139.40042 | 34959 ft | 493 kts | 116° |
| 2026-04-12 02:51 | 59.36168 | -139.27867 | 34960 ft | 493 kts | 116° |
| 2026-04-12 02:51 | 59.33248 | -139.15713 | 34954 ft | 493 kts | 116° |
| 2026-04-12 02:52 | 59.30314 | -139.03568 | 34964 ft | 494 kts | 116° |
| 2026-04-12 02:52 | 59.27363 | -138.91419 | 34961 ft | 494 kts | 116° |
| 2026-04-12 02:53 | 59.24401 | -138.79295 | 34961 ft | 495 kts | 116° |
| 2026-04-12 02:53 | 59.19932 | -138.61128 | 34956 ft | 495 kts | 116° |
| 2026-04-12 02:54 | 59.16941 | -138.49050 | 34963 ft | 495 kts | 116° |
| 2026-04-12 02:54 | 59.13935 | -138.36980 | 34980 ft | 495 kts | 116° |
| 2026-04-12 02:55 | 59.10915 | -138.24920 | 34972 ft | 495 kts | 116° |
| 2026-04-12 02:55 | 59.09395 | -138.18873 | 34544 ft | 501 kts | 116° |
| 2026-04-12 02:55 | 59.07862 | -138.12792 | 33932 ft | 499 kts | 116° |
| 2026-04-12 02:56 | 59.06338 | -138.06766 | 33174 ft | 495 kts | 116° |
| 2026-04-12 02:56 | 59.04846 | -138.00880 | 32498 ft | 491 kts | 116° |
| 2026-04-12 02:56 | 59.03316 | -137.94863 | 31777 ft | 490 kts | 116° |
| 2026-04-12 02:56 | 59.01806 | -137.88938 | 31060 ft | 489 kts | 116° |
| 2026-04-12 02:57 | 59.00316 | -137.83104 | 30322 ft | 488 kts | 116° |
| 2026-04-12 02:57 | 58.98805 | -137.77207 | 29486 ft | 488 kts | 116° |
| 2026-04-12 02:57 | 58.97300 | -137.71350 | 28913 ft | 481 kts | 116° |
| 2026-04-12 02:57 | 58.95815 | -137.65584 | 28331 ft | 475 kts | 116° |
| 2026-04-12 02:58 | 58.94347 | -137.59898 | 27772 ft | 469 kts | 116° |
| 2026-04-12 02:58 | 58.92892 | -137.54278 | 27245 ft | 463 kts | 116° |
| 2026-04-12 02:58 | 58.91450 | -137.48720 | 26692 ft | 464 kts | 116° |
| 2026-04-12 02:58 | 58.89990 | -137.43111 | 26140 ft | 469 kts | 116° |
| 2026-04-12 02:59 | 58.88518 | -137.37466 | 25585 ft | 470 kts | 117° |
| 2026-04-12 02:59 | 58.87041 | -137.31819 | 25038 ft | 474 kts | 117° |
| 2026-04-12 02:59 | 58.85535 | -137.26074 | 24483 ft | 483 kts | 117° |
| 2026-04-12 02:59 | 58.84014 | -137.20286 | 23906 ft | 483 kts | 117° |
| 2026-04-12 03:00 | 58.82505 | -137.14561 | 23239 ft | 475 kts | 117° |
| 2026-04-12 03:00 | 58.81016 | -137.08923 | 22624 ft | 468 kts | 117° |
| 2026-04-12 03:00 | 58.79541 | -137.03357 | 22043 ft | 465 kts | 117° |
| 2026-04-12 03:00 | 58.78073 | -136.97827 | 21473 ft | 462 kts | 117° |
| 2026-04-12 03:01 | 58.76614 | -136.92346 | 20930 ft | 457 kts | 117° |
| 2026-04-12 03:01 | 58.75169 | -136.86930 | 20304 ft | 451 kts | 117° |
| 2026-04-12 03:01 | 58.73740 | -136.81584 | 19597 ft | 447 kts | 117° |
| 2026-04-12 03:01 | 58.72323 | -136.76298 | 19045 ft | 440 kts | 117° |
| 2026-04-12 03:02 | 58.70923 | -136.71087 | 18487 ft | 438 kts | 117° |
| 2026-04-12 03:02 | 58.69527 | -136.65904 | 17903 ft | 435 kts | 117° |
| 2026-04-12 03:02 | 58.68138 | -136.60755 | 17306 ft | 432 kts | 117° |
| 2026-04-12 03:02 | 58.66759 | -136.55672 | 16769 ft | 426 kts | 117° |
| 2026-04-12 03:03 | 58.65393 | -136.50638 | 16244 ft | 423 kts | 116° |
| 2026-04-12 03:03 | 58.64040 | -136.45655 | 15722 ft | 419 kts | 116° |
| 2026-04-12 03:03 | 58.62697 | -136.40717 | 15199 ft | 416 kts | 116° |
| 2026-04-12 03:03 | 58.61380 | -136.35889 | 14699 ft | 412 kts | 116° |
| 2026-04-12 03:04 | 58.60051 | -136.31028 | 14185 ft | 409 kts | 116° |
| 2026-04-12 03:04 | 58.58733 | -136.26218 | 13688 ft | 406 kts | 116° |
| 2026-04-12 03:04 | 58.57427 | -136.21462 | 13174 ft | 401 kts | 116° |
| 2026-04-12 03:04 | 58.56133 | -136.16760 | 12690 ft | 397 kts | 117° |
| 2026-04-12 03:05 | 58.54850 | -136.12105 | 12196 ft | 394 kts | 116° |
| 2026-04-12 03:05 | 58.53570 | -136.07473 | 11693 ft | 391 kts | 117° |
| 2026-04-12 03:05 | 58.52303 | -136.02896 | 11196 ft | 389 kts | 117° |
| 2026-04-12 03:05 | 58.51038 | -135.98335 | 10862 ft | 383 kts | 117° |
| 2026-04-12 03:06 | 58.49792 | -135.93855 | 10728 ft | 382 kts | 117° |
| 2026-04-12 03:06 | 58.48539 | -135.89354 | 10569 ft | 385 kts | 117° |
| 2026-04-12 03:06 | 58.47278 | -135.84837 | 10402 ft | 385 kts | 117° |
| 2026-04-12 03:06 | 58.46022 | -135.80344 | 10232 ft | 383 kts | 117° |
| 2026-04-12 03:07 | 58.44766 | -135.75858 | 10092 ft | 382 kts | 117° |
| 2026-04-12 03:07 | 58.43523 | -135.71430 | 9852 ft | 375 kts | 117° |
| 2026-04-12 03:07 | 58.42341 | -135.67228 | 9447 ft | 367 kts | 117° |
| 2026-04-12 03:07 | 58.41151 | -135.63004 | 9126 ft | 357 kts | 117° |
| 2026-04-12 03:08 | 58.39991 | -135.58889 | 8788 ft | 348 kts | 117° |
| 2026-04-12 03:08 | 58.38857 | -135.54873 | 8466 ft | 340 kts | 117° |
| 2026-04-12 03:08 | 58.37745 | -135.50951 | 8162 ft | 333 kts | 117° |
| 2026-04-12 03:08 | 58.36672 | -135.47098 | 7865 ft | 326 kts | 114° |
| 2026-04-12 03:09 | 58.36147 | -135.42993 | 7586 ft | 316 kts | 91° |
| 2026-04-12 03:09 | 58.36126 | -135.38856 | 7291 ft | 310 kts | 88° |
| 2026-04-12 03:09 | 58.36142 | -135.34778 | 6987 ft | 306 kts | 88° |
| 2026-04-12 03:09 | 58.36157 | -135.30747 | 6675 ft | 302 kts | 89° |
| 2026-04-12 03:10 | 58.36170 | -135.26778 | 6404 ft | 298 kts | 89° |
| 2026-04-12 03:10 | 58.36169 | -135.22851 | 6090 ft | 295 kts | 89° |
| 2026-04-12 03:10 | 58.36150 | -135.19038 | 5912 ft | 279 kts | 89° |
| 2026-04-12 03:10 | 58.36165 | -135.15507 | 5792 ft | 261 kts | 88° |
| 2026-04-12 03:11 | 58.36167 | -135.12133 | 5695 ft | 243 kts | 89° |
| 2026-04-12 03:11 | 58.36148 | -135.09063 | 5583 ft | 228 kts | 89° |
| 2026-04-12 03:11 | 58.36126 | -135.06061 | 5368 ft | 225 kts | 89° |
| 2026-04-12 03:11 | 58.36104 | -135.03108 | 5087 ft | 221 kts | 89° |
| 2026-04-12 03:12 | 58.36084 | -135.00205 | 4790 ft | 218 kts | 89° |
| 2026-04-12 03:12 | 58.36064 | -134.97345 | 4497 ft | 214 kts | 89° |
| 2026-04-12 03:12 | 58.36046 | -134.94531 | 4210 ft | 210 kts | 89° |
| 2026-04-12 03:12 | 58.36029 | -134.91771 | 3944 ft | 207 kts | 89° |
| 2026-04-12 03:13 | 58.36012 | -134.89070 | 3685 ft | 202 kts | 89° |
| 2026-04-12 03:13 | 58.35997 | -134.86408 | 3344 ft | 198 kts | 89° |
| 2026-04-12 03:13 | 58.35982 | -134.83836 | 3024 ft | 190 kts | 89° |
| 2026-04-12 03:13 | 58.35969 | -134.81373 | 2734 ft | 182 kts | 89° |
| 2026-04-12 03:14 | 58.35957 | -134.79048 | 2479 ft | 168 kts | 88° |
| 2026-04-12 03:14 | 58.35946 | -134.76904 | 2152 ft | 156 kts | 88° |
| 2026-04-12 03:14 | 58.35937 | -134.74862 | 1925 ft | 155 kts | 88° |
| 2026-04-12 03:14 | 58.35928 | -134.72817 | 1662 ft | 153 kts | 88° |
| 2026-04-12 03:15 | 58.35919 | -134.70804 | 1415 ft | 151 kts | 88° |
| 2026-04-12 03:15 | 58.35919 | -134.68729 | 1145 ft | 161 kts | 88° |
| 2026-04-12 03:15 | 58.35928 | -134.66620 | 903 ft | 156 kts | 89° |
| 2026-04-12 03:15 | 58.35916 | -134.64569 | 594 ft | 154 kts | 89° |
| 2026-04-12 03:16 | 58.35896 | -134.62542 | 362 ft | 152 kts | 88° |
| 2026-04-12 03:16 | 58.35887 | -134.60583 | 153 ft | 146 kts | 96° |
| 2026-04-12 03:16 | 58.35648 | -134.58739 | 34 ft | 135 kts | 99° |
| 2026-04-12 03:16 | 58.35445 | -134.57265 | 34 ft | 82 kts | 105° |
| 2026-04-12 03:17 | 58.35377 | -134.56737 | 33 ft | 26 kts | 78° |
| 2026-04-12 03:17 | 58.35482 | -134.56753 | 33 ft | 16 kts | 287° |
| 2026-04-12 03:17 | 58.35512 | -134.56953 | 33 ft | 15 kts | 285° |
| 2026-04-12 03:17 | 58.35538 | -134.57139 | 33 ft | 14 kts | 285° |
| 2026-04-12 03:18 | 58.35568 | -134.57356 | 33 ft | 21 kts | 284° |
| 2026-04-12 03:18 | 58.35613 | -134.57670 | 33 ft | 28 kts | 284° |
| 2026-04-12 03:18 | 58.35667 | -134.58058 | 33 ft | 31 kts | 285° |
| 2026-04-12 03:18 | 58.35720 | -134.58445 | 32 ft | 29 kts | 285° |
| 2026-04-12 03:19 | 58.35787 | -134.58630 | 33 ft | 11 kts | 348° |
| 2026-04-12 03:19 | 58.35821 | -134.58638 | 33 ft | 0 kts | 356° |
| 2026-04-12 03:19 | 58.35825 | -134.58694 | 33 ft | 5 kts | 277° |
| 2026-04-12 03:19 | 58.35862 | -134.58709 | 33 ft | 5 kts | 359° |
| 2026-04-12 03:20 | 58.35868 | -134.58709 | 31 ft | 0 kts | 359° |
| 2026-04-12 03:20 | 58.35882 | -134.58709 | 33 ft | 0 kts | 0° |